createdAt,value
2024-01-11T04:39:52.165Z,15.25
2024-01-11T04:42:55.635Z,24.00
2024-01-11T04:45:58.560Z,21.77
2024-01-11T04:49:01.849Z,21.83
2024-01-11T04:58:10.840Z,13.88
2024-01-11T05:01:18.593Z,28.02
2024-01-11T05:04:21.750Z,24.27
2024-01-11T05:07:28.842Z,20.77
2024-01-11T05:10:31.686Z,25.25
2024-01-11T05:13:34.887Z,25.40
2024-01-11T05:16:37.517Z,32.42
2024-01-11T05:19:40.390Z,25.42
2024-01-11T05:25:46.354Z,20.45
2024-01-11T05:28:49.614Z,29.75
2024-01-11T05:31:52.873Z,29.02
2024-01-11T05:34:55.993Z,27.45
2024-01-11T05:37:59.407Z,33.65
2024-01-11T05:41:03.082Z,25.83
2024-01-11T05:44:06.554Z,25.40
2024-01-11T05:47:09.460Z,27.23
2024-01-11T05:50:13.861Z,24.50
2024-01-11T05:53:18.287Z,22.73
2024-01-11T05:56:21.929Z,25.40
2024-01-11T05:59:24.768Z,24.42
2024-01-11T06:02:28.403Z,24.05
2024-01-11T06:05:34.742Z,26.00
2024-01-11T06:08:38.099Z,23.15
2024-01-11T06:11:41.755Z,25.02
2024-01-11T06:14:44.890Z,35.67
2024-01-11T06:17:48.275Z,37.00
2024-01-11T06:20:51.753Z,26.48
2024-01-11T06:23:54.742Z,30.42
2024-01-11T06:30:00.470Z,32.13
2024-01-11T06:33:04.648Z,25.92
2024-01-11T06:36:08.964Z,23.50
2024-01-11T06:39:11.697Z,26.45
2024-01-11T06:42:15.674Z,22.00
2024-01-11T06:45:18.633Z,30.50
2024-01-11T06:48:22.224Z,30.33
2024-01-11T06:51:25.449Z,43.13
2024-01-11T06:54:28.455Z,29.50
2024-01-11T07:00:34.202Z,24.70
2024-01-11T07:03:38.092Z,22.85
2024-01-11T07:06:41.398Z,22.27
2024-01-11T07:12:49.927Z,14.30
2024-01-11T07:18:59.215Z,19.92
2024-01-11T07:22:02.327Z,22.33
2024-01-11T07:25:05.496Z,25.88
2024-01-11T07:31:12.175Z,22.10
2024-01-11T07:34:15.253Z,15.88
2024-01-11T07:37:18.591Z,18.75
2024-01-11T07:40:21.238Z,18.42
2024-01-11T07:46:39.370Z,16.62
2024-01-11T07:49:49.578Z,15.57
2024-01-11T07:55:55.241Z,13.20
2024-01-11T07:58:58.264Z,16.85
2024-01-11T08:02:03.668Z,17.20
2024-01-11T08:05:07.255Z,18.80
2024-01-11T08:08:10.213Z,20.58
2024-01-11T08:11:13.571Z,19.90
2024-01-11T08:14:16.983Z,19.42
2024-01-11T08:17:20.315Z,19.62
2024-01-11T08:20:23.341Z,19.45
2024-01-11T08:23:26.617Z,14.68
2024-01-11T08:29:34.563Z,16.10
2024-01-11T08:32:40.893Z,14.82
2024-01-11T08:35:44.142Z,14.70
2024-01-11T08:38:47.324Z,13.65
2024-01-11T08:41:51.524Z,17.20
2024-01-11T08:44:54.494Z,12.85
2024-01-11T08:47:58.091Z,9.60
2024-01-11T08:51:01.134Z,12.27
2024-01-11T08:54:05.523Z,12.88
2024-01-11T08:57:08.898Z,12.00
2024-01-11T09:00:13.186Z,11.07
2024-01-11T09:03:18.205Z,9.30
2024-01-11T09:06:21.763Z,9.32
2024-01-11T09:12:27.359Z,12.27
2024-01-11T09:15:30.245Z,12.35
2024-01-11T09:18:33.496Z,9.77
2024-01-11T09:21:36.367Z,8.77
2024-01-11T09:27:43.337Z,6.05
2024-01-11T09:33:51.143Z,4.83
2024-01-11T09:36:54.533Z,9.60
2024-01-11T09:39:57.177Z,5.43
2024-01-11T09:46:09.015Z,7.47
2024-01-11T09:49:12.755Z,6.97
2024-01-11T09:52:17.154Z,10.15
2024-01-11T09:55:20.305Z,5.95
2024-01-11T10:01:27.614Z,7.15
2024-01-11T10:04:31.367Z,9.85
2024-01-11T10:10:39.559Z,5.60
2024-01-11T10:13:43.185Z,11.55
2024-01-11T10:19:49.436Z,8.30
2024-01-11T10:22:53.766Z,9.93
2024-01-11T10:26:00.884Z,8.63
2024-01-11T10:29:04.904Z,6.20
2024-01-11T10:32:07.929Z,7.95
2024-01-11T10:35:11.421Z,9.80
2024-01-11T10:41:23.672Z,11.27
2024-01-11T10:44:31.778Z,9.68
2024-01-11T10:47:37.737Z,10.15
2024-01-11T10:50:47.193Z,13.02
2024-01-11T10:53:52.858Z,13.15
2024-01-11T10:56:56.830Z,10.18
2024-01-11T11:00:04.425Z,17.02
2024-01-11T11:03:08.566Z,10.20
2024-01-11T11:06:14.114Z,13.75
2024-01-11T11:09:19.558Z,16.23
2024-01-11T11:12:23.322Z,12.95
2024-01-11T11:15:29.189Z,13.73
2024-01-11T11:18:36.465Z,14.55
2024-01-11T11:21:47.519Z,14.35
2024-01-11T11:25:06.579Z,16.50
2024-01-11T11:28:09.596Z,16.30
2024-01-11T11:34:21.041Z,12.55
2024-01-11T11:37:25.256Z,16.15
2024-01-11T11:40:39.799Z,17.95
2024-01-11T11:43:42.861Z,15.55
2024-01-11T11:46:47.712Z,18.15
2024-01-11T11:50:01.017Z,15.77
2024-01-11T11:53:04.234Z,17.15
2024-01-11T12:02:18.263Z,17.62
2024-01-11T12:05:24.060Z,17.17
2024-01-11T12:08:30.879Z,18.35
2024-01-11T12:11:34.698Z,17.10
2024-01-11T12:14:40.222Z,21.80
2024-01-11T12:17:44.009Z,16.35
2024-01-11T12:20:47.350Z,21.80
2024-01-11T12:23:50.815Z,17.30
2024-01-11T12:30:02.019Z,17.10
2024-01-11T12:33:05.582Z,21.95
2024-01-11T12:36:10.031Z,21.45
2024-01-11T12:39:14.413Z,17.62
2024-01-11T12:42:17.897Z,15.75
2024-01-11T12:45:24.221Z,16.42
2024-01-11T12:48:27.703Z,18.45
2024-01-11T12:54:34.738Z,16.65
2024-01-11T12:57:37.409Z,14.77
2024-01-11T13:00:41.385Z,14.65
2024-01-11T13:03:47.686Z,16.60
2024-01-11T13:06:50.950Z,16.40
2024-01-11T13:09:53.639Z,15.65
2024-01-11T13:16:12.657Z,15.52
2024-01-11T13:19:24.322Z,13.80
2024-01-11T13:22:30.425Z,13.95
2024-01-11T13:25:33.533Z,11.95
2024-01-11T13:28:36.371Z,13.57
2024-01-11T13:34:43.795Z,19.67
2024-01-11T13:37:47.016Z,18.27
2024-01-11T13:40:49.943Z,13.02
2024-01-11T13:43:55.512Z,13.65
2024-01-11T13:46:58.538Z,11.32
2024-01-11T13:50:02.343Z,15.77
2024-01-11T13:53:05.630Z,14.23
2024-01-11T13:59:11.426Z,13.73
2024-01-11T14:02:14.703Z,18.92
2024-01-11T14:08:22.749Z,11.27
2024-01-11T14:11:26.037Z,8.93
2024-01-11T14:14:29.016Z,16.77
2024-01-11T14:17:33.097Z,9.32
2024-01-11T14:20:36.640Z,11.18
2024-01-11T14:23:39.962Z,11.40
2024-01-11T14:29:50.671Z,12.48
2024-01-11T14:32:53.537Z,9.57
2024-01-11T14:35:56.645Z,9.73
2024-01-11T14:38:59.549Z,9.90
2024-01-11T14:45:06.676Z,9.60
2024-01-11T14:48:10.065Z,10.52
2024-01-11T14:51:12.731Z,12.32
2024-01-11T14:57:18.837Z,14.77
2024-01-11T15:03:24.470Z,8.48
2024-01-11T15:09:30.162Z,12.07
2024-01-11T15:12:33.087Z,9.45
2024-01-11T15:15:37.896Z,8.18
2024-01-11T15:18:41.997Z,13.25
2024-01-11T15:21:49.282Z,9.70
2024-01-11T15:24:55.018Z,9.93
2024-01-11T15:27:57.745Z,10.20
2024-01-11T15:31:01.146Z,12.05
2024-01-11T15:34:04.077Z,11.63
2024-01-11T15:37:08.728Z,12.27
2024-01-11T15:40:11.756Z,11.68
2024-01-11T15:43:14.709Z,16.52
2024-01-11T15:46:17.588Z,10.30
2024-01-11T15:49:20.528Z,6.93
2024-01-11T15:52:23.972Z,8.88
2024-01-11T15:55:26.883Z,9.90
2024-01-11T15:58:29.880Z,10.93
2024-01-11T16:01:34.248Z,8.75
2024-01-11T16:04:39.480Z,10.90
2024-01-11T16:07:42.192Z,14.73
2024-01-11T16:10:45.280Z,14.48
2024-01-11T16:16:52.966Z,12.70
2024-01-11T16:22:59.922Z,11.38
2024-01-11T16:26:02.886Z,13.62
2024-01-11T16:29:05.905Z,16.27
2024-01-11T16:32:08.866Z,16.27
